sensor_id;sensor_type;location;lat;lon;timestamp;temperature;humidity
60027;DHT22;45891;53.006;6.512;2022-11-24T00:00:49;7.40;99.90
60027;DHT22;45891;53.006;6.512;2022-11-24T00:03:15;7.30;99.90
60027;DHT22;45891;53.006;6.512;2022-11-24T00:05:41;7.30;99.90
60027;DHT22;45891;53.006;6.512;2022-11-24T00:08:07;7.30;99.90
60027;DHT22;45891;53.006;6.512;2022-11-24T00:10:33;7.20;99.90
60027;DHT22;45891;53.006;6.512;2022-11-24T00:12:59;7.20;99.90
60027;DHT22;45891;53.006;6.512;2022-11-24T00:15:25;7.10;99.90
60027;DHT22;45891;53.006;6.512;2022-11-24T00:17:51;7.10;99.90
60027;DHT22;45891;53.006;6.512;2022-11-24T00:20:17;7.10;99.90
60027;DHT22;45891;53.006;6.512;2022-11-24T00:22:43;7.00;99.90
60027;DHT22;45891;53.006;6.512;2022-11-24T00:25:09;7.00;99.90
60027;DHT22;45891;53.006;6.512;2022-11-24T00:27:35;6.90;99.90
60027;DHT22;45891;53.006;6.512;2022-11-24T00:30:01;6.90;99.90
60027;DHT22;45891;53.006;6.512;2022-11-24T00:32:28;6.90;99.90
60027;DHT22;45891;53.006;6.512;2022-11-24T00:34:54;6.80;99.90
60027;DHT22;45891;53.006;6.512;2022-11-24T00:37:20;6.80;99.90
60027;DHT22;45891;53.006;6.512;2022-11-24T00:39:46;6.80;99.90
60027;DHT22;45891;53.006;6.512;2022-11-24T00:42:12;6.70;99.90
60027;DHT22;45891;53.006;6.512;2022-11-24T00:44:39;6.70;99.90
60027;DHT22;45891;53.006;6.512;2022-11-24T00:47:05;6.80;99.90
60027;DHT22;45891;53.006;6.512;2022-11-24T00:49:31;6.70;99.90
60027;DHT22;45891;53.006;6.512;2022-11-24T00:51:57;6.70;99.90
60027;DHT22;45891;53.006;6.512;2022-11-24T00:54:23;6.80;99.90
60027;DHT22;45891;53.006;6.512;2022-11-24T00:56:48;6.70;99.90
60027;DHT22;45891;53.006;6.512;2022-11-24T00:59:14;6.70;99.90
60027;DHT22;45891;53.006;6.512;2022-11-24T01:01:41;6.80;99.90
60027;DHT22;45891;53.006;6.512;2022-11-24T01:04:07;6.80;99.90
60027;DHT22;45891;53.006;6.512;2022-11-24T01:06:34;6.80;99.90
60027;DHT22;45891;53.006;6.512;2022-11-24T01:09:00;6.80;99.90
60027;DHT22;45891;53.006;6.512;2022-11-24T01:11:27;6.80;99.90
60027;DHT22;45891;53.006;6.512;2022-11-24T01:13:55;6.80;99.90
60027;DHT22;45891;53.006;6.512;2022-11-24T01:16:23;6.80;99.90
60027;DHT22;45891;53.006;6.512;2022-11-24T01:18:49;6.80;99.90
60027;DHT22;45891;53.006;6.512;2022-11-24T01:21:15;6.80;99.90
60027;DHT22;45891;53.006;6.512;2022-11-24T01:23:41;6.80;99.90
60027;DHT22;45891;53.006;6.512;2022-11-24T01:26:09;6.80;99.90
60027;DHT22;45891;53.006;6.512;2022-11-24T01:28:35;6.80;99.90
60027;DHT22;45891;53.006;6.512;2022-11-24T01:31:02;6.80;99.90
60027;DHT22;45891;53.006;6.512;2022-11-24T01:33:28;6.80;99.90
60027;DHT22;45891;53.006;6.512;2022-11-24T01:35:55;6.80;99.90
60027;DHT22;45891;53.006;6.512;2022-11-24T01:38:22;6.80;99.90
60027;DHT22;45891;53.006;6.512;2022-11-24T01:40:48;6.80;99.90
60027;DHT22;45891;53.006;6.512;2022-11-24T01:43:20;6.90;99.90
60027;DHT22;45891;53.006;6.512;2022-11-24T01:45:46;6.90;99.90
60027;DHT22;45891;53.006;6.512;2022-11-24T01:48:26;6.90;99.90
60027;DHT22;45891;53.006;6.512;2022-11-24T01:50:56;6.90;99.90
60027;DHT22;45891;53.006;6.512;2022-11-24T01:53:23;7.00;99.90
60027;DHT22;45891;53.006;6.512;2022-11-24T01:55:49;7.10;99.90
60027;DHT22;45891;53.006;6.512;2022-11-24T01:58:20;7.10;99.90
60027;DHT22;45891;53.006;6.512;2022-11-24T02:00:47;7.10;99.90
60027;DHT22;45891;53.006;6.512;2022-11-24T02:03:15;7.00;99.90
60027;DHT22;45891;53.006;6.512;2022-11-24T02:05:50;7.00;99.90
60027;DHT22;45891;53.006;6.512;2022-11-24T02:08:32;7.00;99.90
60027;DHT22;45891;53.006;6.512;2022-11-24T02:11:00;7.00;99.90
60027;DHT22;45891;53.006;6.512;2022-11-24T02:13:26;6.90;99.90
60027;DHT22;45891;53.006;6.512;2022-11-24T02:15:53;6.90;99.90
60027;DHT22;45891;53.006;6.512;2022-11-24T02:18:19;6.80;99.90
60027;DHT22;45891;53.006;6.512;2022-11-24T02:20:44;6.80;99.90
60027;DHT22;45891;53.006;6.512;2022-11-24T02:23:16;6.70;99.90
60027;DHT22;45891;53.006;6.512;2022-11-24T02:28:17;6.70;99.90
60027;DHT22;45891;53.006;6.512;2022-11-24T02:30:43;6.70;99.90
60027;DHT22;45891;53.006;6.512;2022-11-24T02:33:09;6.70;99.90
60027;DHT22;45891;53.006;6.512;2022-11-24T02:35:36;6.70;99.90
60027;DHT22;45891;53.006;6.512;2022-11-24T02:38:03;6.70;99.90
60027;DHT22;45891;53.006;6.512;2022-11-24T02:40:29;6.70;99.90
60027;DHT22;45891;53.006;6.512;2022-11-24T02:43:06;6.70;99.90
60027;DHT22;45891;53.006;6.512;2022-11-24T02:45:34;6.70;99.90
60027;DHT22;45891;53.006;6.512;2022-11-24T02:48:00;6.70;99.90
60027;DHT22;45891;53.006;6.512;2022-11-24T02:50:26;6.70;99.90
60027;DHT22;45891;53.006;6.512;2022-11-24T02:52:52;6.70;99.90
60027;DHT22;45891;53.006;6.512;2022-11-24T02:55:18;6.70;99.90
60027;DHT22;45891;53.006;6.512;2022-11-24T02:57:46;6.70;99.90
60027;DHT22;45891;53.006;6.512;2022-11-24T03:00:12;6.70;99.90
60027;DHT22;45891;53.006;6.512;2022-11-24T03:02:38;6.70;99.90
60027;DHT22;45891;53.006;6.512;2022-11-24T03:05:05;6.70;99.90
60027;DHT22;45891;53.006;6.512;2022-11-24T03:07:31;6.70;99.90
60027;DHT22;45891;53.006;6.512;2022-11-24T03:09:57;6.70;99.90
60027;DHT22;45891;53.006;6.512;2022-11-24T03:12:23;6.70;99.90
60027;DHT22;45891;53.006;6.512;2022-11-24T03:14:49;6.80;99.90
60027;DHT22;45891;53.006;6.512;2022-11-24T03:17:14;6.80;99.90
60027;DHT22;45891;53.006;6.512;2022-11-24T03:19:40;6.80;99.90
60027;DHT22;45891;53.006;6.512;2022-11-24T03:22:06;6.80;99.90
60027;DHT22;45891;53.006;6.512;2022-11-24T03:24:32;6.90;99.90
60027;DHT22;45891;53.006;6.512;2022-11-24T03:26:58;6.90;99.90
60027;DHT22;45891;53.006;6.512;2022-11-24T03:29:24;6.90;99.90
60027;DHT22;45891;53.006;6.512;2022-11-24T03:31:50;6.90;99.90
60027;DHT22;45891;53.006;6.512;2022-11-24T03:34:16;6.90;99.90
60027;DHT22;45891;53.006;6.512;2022-11-24T03:36:42;6.90;99.90
60027;DHT22;45891;53.006;6.512;2022-11-24T03:39:09;7.00;99.90
60027;DHT22;45891;53.006;6.512;2022-11-24T03:41:35;7.00;99.90
60027;DHT22;45891;53.006;6.512;2022-11-24T03:44:01;7.00;99.90
60027;DHT22;45891;53.006;6.512;2022-11-24T03:46:27;7.00;99.90
60027;DHT22;45891;53.006;6.512;2022-11-24T03:48:53;7.10;99.90
60027;DHT22;45891;53.006;6.512;2022-11-24T03:51:19;7.00;99.90
60027;DHT22;45891;53.006;6.512;2022-11-24T03:53:45;7.00;99.90
60027;DHT22;45891;53.006;6.512;2022-11-24T03:56:13;7.00;99.90
60027;DHT22;45891;53.006;6.512;2022-11-24T03:58:39;7.00;99.90
60027;DHT22;45891;53.006;6.512;2022-11-24T04:01:04;7.00;99.90
60027;DHT22;45891;53.006;6.512;2022-11-24T04:03:30;6.90;99.90
60027;DHT22;45891;53.006;6.512;2022-11-24T04:05:56;6.90;99.90
60027;DHT22;45891;53.006;6.512;2022-11-24T04:08:22;6.90;99.90
60027;DHT22;45891;53.006;6.512;2022-11-24T04:10:49;6.90;99.90
60027;DHT22;45891;53.006;6.512;2022-11-24T04:13:16;6.90;99.90
60027;DHT22;45891;53.006;6.512;2022-11-24T04:15:42;6.90;99.90
60027;DHT22;45891;53.006;6.512;2022-11-24T04:18:09;6.90;99.90
60027;DHT22;45891;53.006;6.512;2022-11-24T04:20:35;6.90;99.90
60027;DHT22;45891;53.006;6.512;2022-11-24T04:23:01;6.90;99.90
60027;DHT22;45891;53.006;6.512;2022-11-24T04:25:28;6.90;99.90
60027;DHT22;45891;53.006;6.512;2022-11-24T04:27:54;6.90;99.90
60027;DHT22;45891;53.006;6.512;2022-11-24T04:30:21;6.90;99.90
60027;DHT22;45891;53.006;6.512;2022-11-24T04:32:47;6.90;99.90
60027;DHT22;45891;53.006;6.512;2022-11-24T04:35:13;6.90;99.90
60027;DHT22;45891;53.006;6.512;2022-11-24T04:37:39;6.90;99.90
60027;DHT22;45891;53.006;6.512;2022-11-24T04:40:06;6.90;99.90
60027;DHT22;45891;53.006;6.512;2022-11-24T04:42:33;6.90;99.90
60027;DHT22;45891;53.006;6.512;2022-11-24T04:44:59;6.80;99.90
60027;DHT22;45891;53.006;6.512;2022-11-24T04:47:26;6.80;99.90
60027;DHT22;45891;53.006;6.512;2022-11-24T04:49:52;6.80;99.90
60027;DHT22;45891;53.006;6.512;2022-11-24T04:52:18;6.80;99.90
60027;DHT22;45891;53.006;6.512;2022-11-24T04:54:45;6.80;99.90
60027;DHT22;45891;53.006;6.512;2022-11-24T04:59:40;6.70;99.90
60027;DHT22;45891;53.006;6.512;2022-11-24T05:02:07;6.70;99.90
60027;DHT22;45891;53.006;6.512;2022-11-24T05:04:34;6.70;99.90
60027;DHT22;45891;53.006;6.512;2022-11-24T05:07:00;6.70;99.90
60027;DHT22;45891;53.006;6.512;2022-11-24T05:09:27;6.60;99.90
60027;DHT22;45891;53.006;6.512;2022-11-24T05:11:53;6.60;99.90
60027;DHT22;45891;53.006;6.512;2022-11-24T05:14:19;6.50;99.90
60027;DHT22;45891;53.006;6.512;2022-11-24T05:16:45;6.50;99.90
60027;DHT22;45891;53.006;6.512;2022-11-24T05:19:11;6.50;99.90
60027;DHT22;45891;53.006;6.512;2022-11-24T05:21:38;6.40;99.90
60027;DHT22;45891;53.006;6.512;2022-11-24T05:24:03;6.40;99.90
60027;DHT22;45891;53.006;6.512;2022-11-24T05:26:30;6.30;99.90
60027;DHT22;45891;53.006;6.512;2022-11-24T05:28:56;6.30;99.90
60027;DHT22;45891;53.006;6.512;2022-11-24T05:31:21;6.30;99.90
60027;DHT22;45891;53.006;6.512;2022-11-24T05:33:47;6.30;99.90
60027;DHT22;45891;53.006;6.512;2022-11-24T05:36:13;6.20;99.90
60027;DHT22;45891;53.006;6.512;2022-11-24T05:38:58;6.20;99.90
60027;DHT22;45891;53.006;6.512;2022-11-24T05:41:25;6.20;99.90
60027;DHT22;45891;53.006;6.512;2022-11-24T05:43:51;6.20;99.90
60027;DHT22;45891;53.006;6.512;2022-11-24T05:46:17;6.20;99.90
60027;DHT22;45891;53.006;6.512;2022-11-24T05:48:43;6.30;99.90
60027;DHT22;45891;53.006;6.512;2022-11-24T05:51:09;6.30;99.90
60027;DHT22;45891;53.006;6.512;2022-11-24T05:53:35;6.30;99.90
60027;DHT22;45891;53.006;6.512;2022-11-24T05:56:02;6.30;99.90
60027;DHT22;45891;53.006;6.512;2022-11-24T05:58:28;6.30;99.90
60027;DHT22;45891;53.006;6.512;2022-11-24T06:00:54;6.30;99.90
60027;DHT22;45891;53.006;6.512;2022-11-24T06:03:20;6.30;99.90
60027;DHT22;45891;53.006;6.512;2022-11-24T06:05:46;6.30;99.90
60027;DHT22;45891;53.006;6.512;2022-11-24T06:08:12;6.30;99.90
60027;DHT22;45891;53.006;6.512;2022-11-24T06:10:39;6.30;99.90
60027;DHT22;45891;53.006;6.512;2022-11-24T06:13:07;6.40;99.90
60027;DHT22;45891;53.006;6.512;2022-11-24T06:15:33;6.40;99.90
60027;DHT22;45891;53.006;6.512;2022-11-24T06:18:01;6.40;99.90
60027;DHT22;45891;53.006;6.512;2022-11-24T06:20:27;6.50;99.90
60027;DHT22;45891;53.006;6.512;2022-11-24T06:22:53;6.40;99.90
60027;DHT22;45891;53.006;6.512;2022-11-24T06:25:22;6.40;99.90
60027;DHT22;45891;53.006;6.512;2022-11-24T06:27:49;6.40;99.90
60027;DHT22;45891;53.006;6.512;2022-11-24T06:30:15;6.40;99.90
60027;DHT22;45891;53.006;6.512;2022-11-24T06:32:41;6.40;99.90
60027;DHT22;45891;53.006;6.512;2022-11-24T06:35:10;6.40;99.90
60027;DHT22;45891;53.006;6.512;2022-11-24T06:37:36;6.40;99.90
60027;DHT22;45891;53.006;6.512;2022-11-24T06:40:03;6.40;99.90
60027;DHT22;45891;53.006;6.512;2022-11-24T06:42:30;6.40;99.90
60027;DHT22;45891;53.006;6.512;2022-11-24T06:44:56;6.40;99.90
60027;DHT22;45891;53.006;6.512;2022-11-24T06:47:23;6.40;99.90
60027;DHT22;45891;53.006;6.512;2022-11-24T06:49:50;6.40;99.90
60027;DHT22;45891;53.006;6.512;2022-11-24T06:52:16;6.40;99.90
60027;DHT22;45891;53.006;6.512;2022-11-24T06:54:42;6.40;99.90
60027;DHT22;45891;53.006;6.512;2022-11-24T06:57:08;6.50;99.90
60027;DHT22;45891;53.006;6.512;2022-11-24T06:59:34;6.50;99.90
60027;DHT22;45891;53.006;6.512;2022-11-24T07:02:00;6.50;99.90
60027;DHT22;45891;53.006;6.512;2022-11-24T07:04:26;6.50;99.90
60027;DHT22;45891;53.006;6.512;2022-11-24T07:06:54;6.50;99.90
60027;DHT22;45891;53.006;6.512;2022-11-24T07:09:20;6.50;99.90
60027;DHT22;45891;53.006;6.512;2022-11-24T07:11:46;6.50;99.90
60027;DHT22;45891;53.006;6.512;2022-11-24T07:14:13;6.60;99.90
60027;DHT22;45891;53.006;6.512;2022-11-24T07:16:39;6.60;99.90
60027;DHT22;45891;53.006;6.512;2022-11-24T07:19:05;6.60;99.90
60027;DHT22;45891;53.006;6.512;2022-11-24T07:21:32;6.60;99.90
60027;DHT22;45891;53.006;6.512;2022-11-24T07:23:57;6.50;99.90
60027;DHT22;45891;53.006;6.512;2022-11-24T07:26:24;6.50;99.90
60027;DHT22;45891;53.006;6.512;2022-11-24T07:28:50;6.50;99.90
60027;DHT22;45891;53.006;6.512;2022-11-24T07:31:19;6.50;99.90
60027;DHT22;45891;53.006;6.512;2022-11-24T07:33:49;6.40;99.90
60027;DHT22;45891;53.006;6.512;2022-11-24T07:36:15;6.40;99.90
60027;DHT22;45891;53.006;6.512;2022-11-24T07:38:41;6.40;99.90
60027;DHT22;45891;53.006;6.512;2022-11-24T07:41:08;6.40;99.90
60027;DHT22;45891;53.006;6.512;2022-11-24T07:43:35;6.40;99.90
60027;DHT22;45891;53.006;6.512;2022-11-24T07:46:01;6.40;99.90
60027;DHT22;45891;53.006;6.512;2022-11-24T07:48:27;6.40;99.90
60027;DHT22;45891;53.006;6.512;2022-11-24T07:50:53;6.40;99.90
60027;DHT22;45891;53.006;6.512;2022-11-24T07:53:19;6.40;99.90
60027;DHT22;45891;53.006;6.512;2022-11-24T07:55:52;6.50;99.90
60027;DHT22;45891;53.006;6.512;2022-11-24T07:58:19;6.50;99.90
60027;DHT22;45891;53.006;6.512;2022-11-24T08:00:45;6.50;99.90
60027;DHT22;45891;53.006;6.512;2022-11-24T08:03:11;6.50;99.90
60027;DHT22;45891;53.006;6.512;2022-11-24T08:05:37;6.50;99.90
60027;DHT22;45891;53.006;6.512;2022-11-24T08:08:03;6.60;99.90
60027;DHT22;45891;53.006;6.512;2022-11-24T08:10:29;6.60;99.90
60027;DHT22;45891;53.006;6.512;2022-11-24T08:15:55;6.80;99.90
60027;DHT22;45891;53.006;6.512;2022-11-24T08:18:36;6.90;99.90
60027;DHT22;45891;53.006;6.512;2022-11-24T08:21:03;7.00;99.90
60027;DHT22;45891;53.006;6.512;2022-11-24T08:23:29;7.10;99.90
60027;DHT22;45891;53.006;6.512;2022-11-24T08:25:55;7.10;99.90
60027;DHT22;45891;53.006;6.512;2022-11-24T08:28:22;7.10;99.90
60027;DHT22;45891;53.006;6.512;2022-11-24T08:30:48;7.10;99.90
60027;DHT22;45891;53.006;6.512;2022-11-24T08:33:14;7.10;99.90
60027;DHT22;45891;53.006;6.512;2022-11-24T08:35:41;7.10;99.90
60027;DHT22;45891;53.006;6.512;2022-11-24T08:38:07;7.20;99.90
60027;DHT22;45891;53.006;6.512;2022-11-24T08:40:33;7.20;99.90
60027;DHT22;45891;53.006;6.512;2022-11-24T08:42:59;7.20;99.90
60027;DHT22;45891;53.006;6.512;2022-11-24T08:45:25;7.30;99.90
60027;DHT22;45891;53.006;6.512;2022-11-24T08:47:53;7.30;99.90
60027;DHT22;45891;53.006;6.512;2022-11-24T08:50:20;7.30;99.90
60027;DHT22;45891;53.006;6.512;2022-11-24T08:52:47;7.30;99.90
60027;DHT22;45891;53.006;6.512;2022-11-24T08:55:13;7.30;99.90
60027;DHT22;45891;53.006;6.512;2022-11-24T08:57:39;7.40;99.90
60027;DHT22;45891;53.006;6.512;2022-11-24T09:00:05;7.40;99.90
60027;DHT22;45891;53.006;6.512;2022-11-24T09:02:31;7.50;99.90
60027;DHT22;45891;53.006;6.512;2022-11-24T09:04:57;7.50;99.90
60027;DHT22;45891;53.006;6.512;2022-11-24T09:07:23;7.50;99.90
60027;DHT22;45891;53.006;6.512;2022-11-24T09:09:49;7.60;99.90
60027;DHT22;45891;53.006;6.512;2022-11-24T09:12:15;7.60;99.90
60027;DHT22;45891;53.006;6.512;2022-11-24T09:14:41;7.60;99.90
60027;DHT22;45891;53.006;6.512;2022-11-24T09:17:07;7.70;99.90
60027;DHT22;45891;53.006;6.512;2022-11-24T09:19:33;7.70;99.90
60027;DHT22;45891;53.006;6.512;2022-11-24T09:21:59;7.80;99.90
60027;DHT22;45891;53.006;6.512;2022-11-24T09:24:25;7.70;99.90
60027;DHT22;45891;53.006;6.512;2022-11-24T09:26:53;7.80;99.90
60027;DHT22;45891;53.006;6.512;2022-11-24T09:29:20;7.80;99.90
60027;DHT22;45891;53.006;6.512;2022-11-24T09:31:46;7.80;99.90
60027;DHT22;45891;53.006;6.512;2022-11-24T09:34:12;7.80;99.90
60027;DHT22;45891;53.006;6.512;2022-11-24T09:36:39;7.90;99.90
60027;DHT22;45891;53.006;6.512;2022-11-24T09:39:08;7.90;99.90
60027;DHT22;45891;53.006;6.512;2022-11-24T09:41:54;7.90;99.90
60027;DHT22;45891;53.006;6.512;2022-11-24T09:46:57;7.90;99.90
60027;DHT22;45891;53.006;6.512;2022-11-24T09:49:36;7.90;99.90
60027;DHT22;45891;53.006;6.512;2022-11-24T09:52:07;8.00;99.90
60027;DHT22;45891;53.006;6.512;2022-11-24T09:54:33;8.00;99.90
60027;DHT22;45891;53.006;6.512;2022-11-24T09:57:00;8.10;99.90
60027;DHT22;45891;53.006;6.512;2022-11-24T09:59:29;8.10;99.90
60027;DHT22;45891;53.006;6.512;2022-11-24T10:01:55;8.10;99.90
60027;DHT22;45891;53.006;6.512;2022-11-24T10:04:24;8.20;99.90
60027;DHT22;45891;53.006;6.512;2022-11-24T10:15:14;8.40;99.90
60027;DHT22;45891;53.006;6.512;2022-11-24T10:17:20;8.50;99.90
60027;DHT22;45891;53.006;6.512;2022-11-24T10:19:56;8.50;99.90
60027;DHT22;45891;53.006;6.512;2022-11-24T10:22:29;8.50;99.90
60027;DHT22;45891;53.006;6.512;2022-11-24T10:25:07;8.50;99.90
60027;DHT22;45891;53.006;6.512;2022-11-24T10:27:44;8.50;99.90
60027;DHT22;45891;53.006;6.512;2022-11-24T10:30:18;8.50;99.90
60027;DHT22;45891;53.006;6.512;2022-11-24T10:32:48;8.50;99.90
60027;DHT22;45891;53.006;6.512;2022-11-24T10:35:19;8.50;99.90
60027;DHT22;45891;53.006;6.512;2022-11-24T10:40:35;8.60;99.90
60027;DHT22;45891;53.006;6.512;2022-11-24T10:43:02;8.70;99.90
60027;DHT22;45891;53.006;6.512;2022-11-24T10:45:35;8.70;99.90
60027;DHT22;45891;53.006;6.512;2022-11-24T10:48:02;8.80;99.90
60027;DHT22;45891;53.006;6.512;2022-11-24T10:50:32;8.90;99.90
60027;DHT22;45891;53.006;6.512;2022-11-24T10:58:23;9.10;99.90
60027;DHT22;45891;53.006;6.512;2022-11-24T11:00:51;9.10;99.90
60027;DHT22;45891;53.006;6.512;2022-11-24T11:08:28;9.00;99.90
60027;DHT22;45891;53.006;6.512;2022-11-24T11:11:15;9.10;99.90
60027;DHT22;45891;53.006;6.512;2022-11-24T11:13:53;9.10;99.90
60027;DHT22;45891;53.006;6.512;2022-11-24T11:18:54;9.30;99.90
60027;DHT22;45891;53.006;6.512;2022-11-24T11:21:25;9.30;99.90
60027;DHT22;45891;53.006;6.512;2022-11-24T11:23:52;9.40;99.90
60027;DHT22;45891;53.006;6.512;2022-11-24T11:31:26;9.60;99.90
60027;DHT22;45891;53.006;6.512;2022-11-24T11:33:53;9.60;99.90
60027;DHT22;45891;53.006;6.512;2022-11-24T11:36:20;9.60;99.90
60027;DHT22;45891;53.006;6.512;2022-11-24T11:38:45;9.70;99.90
60027;DHT22;45891;53.006;6.512;2022-11-24T11:41:15;9.70;99.90
60027;DHT22;45891;53.006;6.512;2022-11-24T11:43:41;9.70;99.90
60027;DHT22;45891;53.006;6.512;2022-11-24T11:46:11;9.80;99.90
60027;DHT22;45891;53.006;6.512;2022-11-24T11:48:38;9.80;99.90
60027;DHT22;45891;53.006;6.512;2022-11-24T11:53:36;9.90;99.90
60027;DHT22;45891;53.006;6.512;2022-11-24T11:56:28;9.90;99.90
60027;DHT22;45891;53.006;6.512;2022-11-24T12:03:55;10.60;99.90
60027;DHT22;45891;53.006;6.512;2022-11-24T12:11:46;14.30;99.90
60027;DHT22;45891;53.006;6.512;2022-11-24T12:27:03;16.80;99.90
60027;DHT22;45891;53.006;6.512;2022-11-24T12:42:27;17.80;99.90
60027;DHT22;45891;53.006;6.512;2022-11-24T12:44:59;17.70;99.60
60027;DHT22;45891;53.006;6.512;2022-11-24T12:47:36;17.70;99.90
60027;DHT22;45891;53.006;6.512;2022-11-24T12:50:09;18.20;99.90
60027;DHT22;45891;53.006;6.512;2022-11-24T12:52:43;18.50;99.40
60027;DHT22;45891;53.006;6.512;2022-11-24T12:55:11;18.60;99.20
60027;DHT22;45891;53.006;6.512;2022-11-24T13:08:02;18.90;99.30
60027;DHT22;45891;53.006;6.512;2022-11-24T13:10:30;18.70;98.40
60027;DHT22;45891;53.006;6.512;2022-11-24T13:15:22;18.20;99.50
60027;DHT22;45891;53.006;6.512;2022-11-24T13:17:48;18.30;99.30
60027;DHT22;45891;53.006;6.512;2022-11-24T13:20:15;18.10;98.70
60027;DHT22;45891;53.006;6.512;2022-11-24T13:22:47;18.10;99.90
60027;DHT22;45891;53.006;6.512;2022-11-24T13:25:15;18.50;99.60
60027;DHT22;45891;53.006;6.512;2022-11-24T13:27:42;18.50;98.80
60027;DHT22;45891;53.006;6.512;2022-11-24T13:33:00;18.30;99.20
60027;DHT22;45891;53.006;6.512;2022-11-24T13:35:27;17.90;99.00
60027;DHT22;45891;53.006;6.512;2022-11-24T13:37:53;17.80;99.50
60027;DHT22;45891;53.006;6.512;2022-11-24T13:53:33;16.60;99.90
60027;DHT22;45891;53.006;6.512;2022-11-24T13:58:34;14.90;99.90
60027;DHT22;45891;53.006;6.512;2022-11-24T14:01:06;15.10;99.90
60027;DHT22;45891;53.006;6.512;2022-11-24T14:03:35;15.20;99.90
60027;DHT22;45891;53.006;6.512;2022-11-24T14:06:03;15.40;99.90
60027;DHT22;45891;53.006;6.512;2022-11-24T14:08:33;15.50;99.90
60027;DHT22;45891;53.006;6.512;2022-11-24T14:11:01;15.60;99.90
60027;DHT22;45891;53.006;6.512;2022-11-24T14:13:30;15.30;99.90
60027;DHT22;45891;53.006;6.512;2022-11-24T14:18:36;14.90;99.90
60027;DHT22;45891;53.006;6.512;2022-11-24T14:23:49;14.80;99.90
60027;DHT22;45891;53.006;6.512;2022-11-24T14:26:17;14.90;99.90
60027;DHT22;45891;53.006;6.512;2022-11-24T14:28:44;15.00;99.90
60027;DHT22;45891;53.006;6.512;2022-11-24T14:31:24;14.60;99.90
60027;DHT22;45891;53.006;6.512;2022-11-24T14:36:52;13.40;99.90
60027;DHT22;45891;53.006;6.512;2022-11-24T14:39:22;12.80;99.90
60027;DHT22;45891;53.006;6.512;2022-11-24T14:41:52;12.40;99.90
60027;DHT22;45891;53.006;6.512;2022-11-24T14:44:24;12.10;99.90
60027;DHT22;45891;53.006;6.512;2022-11-24T14:46:59;11.80;99.90
60027;DHT22;45891;53.006;6.512;2022-11-24T14:49:27;11.60;99.90
60027;DHT22;45891;53.006;6.512;2022-11-24T14:51:57;11.50;99.90
60027;DHT22;45891;53.006;6.512;2022-11-24T14:54:25;11.30;99.90
60027;DHT22;45891;53.006;6.512;2022-11-24T14:59:23;11.10;99.90
60027;DHT22;45891;53.006;6.512;2022-11-24T15:01:50;11.00;99.90
60027;DHT22;45891;53.006;6.512;2022-11-24T15:04:22;10.90;99.90
60027;DHT22;45891;53.006;6.512;2022-11-24T15:07:11;10.70;99.90
60027;DHT22;45891;53.006;6.512;2022-11-24T15:12:24;10.50;99.90
60027;DHT22;45891;53.006;6.512;2022-11-24T15:14:54;10.40;99.90
60027;DHT22;45891;53.006;6.512;2022-11-24T15:17:22;10.20;99.90
60027;DHT22;45891;53.006;6.512;2022-11-24T15:19:50;10.10;99.90
60027;DHT22;45891;53.006;6.512;2022-11-24T15:22:31;10.00;99.90
60027;DHT22;45891;53.006;6.512;2022-11-24T15:24:58;9.90;99.90
60027;DHT22;45891;53.006;6.512;2022-11-24T15:27:24;9.80;99.90
60027;DHT22;45891;53.006;6.512;2022-11-24T15:29:50;9.70;99.90
60027;DHT22;45891;53.006;6.512;2022-11-24T15:32:18;9.70;99.90
60027;DHT22;45891;53.006;6.512;2022-11-24T15:34:44;9.60;99.90
60027;DHT22;45891;53.006;6.512;2022-11-24T15:37:10;9.50;99.90
60027;DHT22;45891;53.006;6.512;2022-11-24T15:39:35;9.40;99.90
60027;DHT22;45891;53.006;6.512;2022-11-24T15:42:01;9.30;99.90
60027;DHT22;45891;53.006;6.512;2022-11-24T15:44:30;9.20;99.90
60027;DHT22;45891;53.006;6.512;2022-11-24T15:46:57;9.10;99.90
60027;DHT22;45891;53.006;6.512;2022-11-24T15:49:23;9.10;99.90
60027;DHT22;45891;53.006;6.512;2022-11-24T15:51:49;8.90;99.90
60027;DHT22;45891;53.006;6.512;2022-11-24T15:54:15;8.90;99.90
60027;DHT22;45891;53.006;6.512;2022-11-24T15:56:42;8.80;99.90
60027;DHT22;45891;53.006;6.512;2022-11-24T15:59:12;8.80;99.90
60027;DHT22;45891;53.006;6.512;2022-11-24T16:01:40;8.80;99.90
60027;DHT22;45891;53.006;6.512;2022-11-24T16:04:07;8.70;99.90
60027;DHT22;45891;53.006;6.512;2022-11-24T16:06:33;8.60;99.90
60027;DHT22;45891;53.006;6.512;2022-11-24T16:08:59;8.60;99.90
60027;DHT22;45891;53.006;6.512;2022-11-24T16:11:25;8.50;99.90
60027;DHT22;45891;53.006;6.512;2022-11-24T16:13:51;8.40;99.90
60027;DHT22;45891;53.006;6.512;2022-11-24T16:16:18;8.40;99.90
60027;DHT22;45891;53.006;6.512;2022-11-24T16:18:44;8.30;99.90
60027;DHT22;45891;53.006;6.512;2022-11-24T16:21:10;8.30;99.90
60027;DHT22;45891;53.006;6.512;2022-11-24T16:23:36;8.20;99.90
60027;DHT22;45891;53.006;6.512;2022-11-24T16:26:03;8.20;99.90
60027;DHT22;45891;53.006;6.512;2022-11-24T16:28:31;8.10;99.90
60027;DHT22;45891;53.006;6.512;2022-11-24T16:30:57;8.10;99.90
60027;DHT22;45891;53.006;6.512;2022-11-24T16:33:23;8.10;99.90
60027;DHT22;45891;53.006;6.512;2022-11-24T16:35:49;8.00;99.90
60027;DHT22;45891;53.006;6.512;2022-11-24T16:38:18;7.90;99.90
60027;DHT22;45891;53.006;6.512;2022-11-24T16:40:44;7.90;99.90
60027;DHT22;45891;53.006;6.512;2022-11-24T16:43:14;7.80;99.90
60027;DHT22;45891;53.006;6.512;2022-11-24T16:45:41;7.80;99.90
60027;DHT22;45891;53.006;6.512;2022-11-24T16:48:07;7.80;99.90
60027;DHT22;45891;53.006;6.512;2022-11-24T16:50:33;7.80;99.90
60027;DHT22;45891;53.006;6.512;2022-11-24T16:53:01;7.80;99.90
60027;DHT22;45891;53.006;6.512;2022-11-24T16:55:27;7.70;99.90
60027;DHT22;45891;53.006;6.512;2022-11-24T16:57:53;7.70;99.90
60027;DHT22;45891;53.006;6.512;2022-11-24T17:00:19;7.70;99.90
60027;DHT22;45891;53.006;6.512;2022-11-24T17:02:46;7.70;99.90
60027;DHT22;45891;53.006;6.512;2022-11-24T17:05:12;7.70;99.90
60027;DHT22;45891;53.006;6.512;2022-11-24T17:07:38;7.60;99.90
60027;DHT22;45891;53.006;6.512;2022-11-24T17:10:05;7.60;99.90
60027;DHT22;45891;53.006;6.512;2022-11-24T17:12:31;7.60;99.90
60027;DHT22;45891;53.006;6.512;2022-11-24T17:14:59;7.60;99.90
60027;DHT22;45891;53.006;6.512;2022-11-24T17:17:26;7.60;99.90
60027;DHT22;45891;53.006;6.512;2022-11-24T17:19:52;7.50;99.90
60027;DHT22;45891;53.006;6.512;2022-11-24T17:22:17;7.50;99.90
60027;DHT22;45891;53.006;6.512;2022-11-24T17:24:43;7.50;99.90
60027;DHT22;45891;53.006;6.512;2022-11-24T17:27:12;7.50;99.90
60027;DHT22;45891;53.006;6.512;2022-11-24T17:29:38;7.40;99.90
60027;DHT22;45891;53.006;6.512;2022-11-24T17:32:04;7.40;99.90
60027;DHT22;45891;53.006;6.512;2022-11-24T17:34:30;7.40;99.90
60027;DHT22;45891;53.006;6.512;2022-11-24T17:36:57;7.40;99.90
60027;DHT22;45891;53.006;6.512;2022-11-24T17:39:23;7.30;99.90
60027;DHT22;45891;53.006;6.512;2022-11-24T17:41:51;7.30;99.90
60027;DHT22;45891;53.006;6.512;2022-11-24T17:44:17;7.30;99.90
60027;DHT22;45891;53.006;6.512;2022-11-24T17:46:43;7.30;99.90
60027;DHT22;45891;53.006;6.512;2022-11-24T17:49:09;7.30;99.90